createdAt,value
2023-03-16T05:24:41.981Z,41
2023-03-16T05:29:44.001Z,41
2023-03-16T05:34:46.156Z,42
2023-03-16T05:39:49.163Z,42
2023-03-16T05:44:51.271Z,43
2023-03-16T05:49:53.552Z,43
2023-03-16T05:54:55.707Z,43
2023-03-16T06:00:00.136Z,43
2023-03-16T06:05:02.224Z,42
2023-03-16T06:10:05.156Z,41
2023-03-16T06:15:07.286Z,40
2023-03-16T06:20:13.520Z,39
2023-03-16T06:25:16.340Z,38
2023-03-16T06:30:18.446Z,38
2023-03-16T06:35:22.082Z,37
2023-03-16T06:40:26.827Z,36
2023-03-16T06:45:29.825Z,36
2023-03-16T06:50:31.834Z,36
2023-03-16T06:55:34.892Z,37
2023-03-16T07:00:37.703Z,37
2023-03-16T07:05:40.035Z,38
2023-03-16T07:10:42.240Z,38
2023-03-16T07:15:45.090Z,38
2023-03-16T07:20:53.302Z,38
2023-03-16T07:25:56.458Z,38
2023-03-16T07:31:03.669Z,38
2023-03-16T07:36:01.601Z,38
2023-03-16T07:41:03.719Z,38
2023-03-16T07:46:05.870Z,38
2023-03-16T07:51:08.071Z,38
2023-03-16T07:56:10.213Z,38
2023-03-16T08:01:13.086Z,38
2023-03-16T08:06:16.126Z,38
2023-03-16T08:11:18.291Z,38
2023-03-16T08:16:22.055Z,38
2023-03-16T08:21:25.141Z,37
2023-03-16T08:26:27.294Z,37
2023-03-16T08:31:30.358Z,36
2023-03-16T08:36:32.384Z,36
2023-03-16T08:41:34.827Z,36
2023-03-16T08:46:36.982Z,35
2023-03-16T08:51:39.036Z,35
2023-03-16T08:56:43.818Z,36
2023-03-16T09:01:46.034Z,36
2023-03-16T09:06:55.792Z,37
2023-03-16T09:11:50.389Z,37
2023-03-16T09:16:53.224Z,38
2023-03-16T09:21:55.585Z,38
2023-03-16T09:26:57.918Z,38
2023-03-16T09:32:01.406Z,38
2023-03-16T09:37:03.543Z,38
2023-03-16T09:42:05.728Z,38
2023-03-16T09:47:08.580Z,38
2023-03-16T09:52:10.874Z,38
2023-03-16T09:57:12.981Z,38
2023-03-16T10:02:15.971Z,38
2023-03-16T10:07:22.877Z,39
2023-03-16T10:12:25.712Z,39
2023-03-16T10:17:27.818Z,39
2023-03-16T10:22:31.509Z,39
2023-03-16T10:27:33.676Z,39
2023-03-16T10:32:36.827Z,39
2023-03-16T10:37:38.856Z,40
2023-03-16T10:42:41.188Z,40
2023-03-16T10:47:43.368Z,40
2023-03-16T10:52:45.735Z,40
2023-03-16T10:57:48.640Z,39
2023-03-16T11:02:50.731Z,39
2023-03-16T11:07:52.856Z,39
2023-03-16T11:12:55.989Z,39
2023-03-16T11:17:57.117Z,39
2023-03-16T11:22:59.442Z,39
2023-03-16T11:28:04.912Z,39
2023-03-16T11:33:07.032Z,39
2023-03-16T11:38:11.408Z,40
2023-03-16T11:43:13.748Z,40
2023-03-16T11:48:16.029Z,40
2023-03-16T11:53:18.839Z,40
2023-03-16T11:58:23.351Z,40
2023-03-16T12:03:25.706Z,40
2023-03-16T12:08:27.771Z,40
2023-03-16T12:13:29.912Z,41
2023-03-16T12:18:37.058Z,41
2023-03-16T12:23:40.826Z,41
2023-03-16T12:28:43.045Z,41
2023-03-16T12:33:45.129Z,41
2023-03-16T12:38:48.755Z,41
2023-03-16T12:43:51.111Z,41
2023-03-16T12:48:53.904Z,41
2023-03-16T12:53:56.864Z,41
2023-03-16T12:58:59.037Z,41
2023-03-16T13:04:01.225Z,41
2023-03-16T13:09:04.255Z,41
2023-03-16T13:14:06.417Z,40
2023-03-16T13:19:09.286Z,40
2023-03-16T13:24:16.101Z,40
2023-03-16T13:29:21.395Z,40
2023-03-16T13:34:24.339Z,40
2023-03-16T13:39:27.322Z,40
2023-03-16T13:44:30.227Z,40
2023-03-16T13:49:32.409Z,40
2023-03-16T13:54:34.767Z,40
2023-03-16T13:59:36.896Z,40
2023-03-16T14:04:44.303Z,38
2023-03-16T14:09:43.910Z,36
2023-03-16T14:14:46.156Z,34
2023-03-16T14:19:50.540Z,32
2023-03-16T14:24:54.182Z,31
2023-03-16T14:29:56.510Z,31
2023-03-16T14:35:00.285Z,31
2023-03-16T14:40:03.215Z,31
2023-03-16T14:45:05.308Z,30
2023-03-16T14:50:08.400Z,29
2023-03-16T14:55:10.471Z,28
2023-03-16T15:00:17.519Z,27
2023-03-16T15:05:21.185Z,26
2023-03-16T15:10:24.058Z,25
2023-03-16T15:15:27.191Z,24
2023-03-16T15:20:29.488Z,23
2023-03-16T15:25:31.540Z,23
2023-03-16T15:30:33.671Z,22
2023-03-16T15:35:35.861Z,22
2023-03-16T15:40:37.952Z,21
2023-03-16T15:45:41.615Z,21
2023-03-16T15:50:44.630Z,21
2023-03-16T15:55:46.828Z,21
2023-03-16T16:00:50.636Z,21
2023-03-16T16:05:52.653Z,22
2023-03-16T16:10:54.927Z,22
2023-03-16T16:15:57.200Z,23
2023-03-16T16:21:04.126Z,25
2023-03-16T16:26:06.148Z,27
2023-03-16T16:31:08.712Z,29
2023-03-16T16:36:17.193Z,30
2023-03-16T16:41:19.334Z,31
2023-03-16T16:46:22.298Z,31
2023-03-16T16:51:26.615Z,31
2023-03-16T16:56:28.930Z,31
2023-03-16T17:01:32.572Z,31
2023-03-16T17:06:39.224Z,31
2023-03-16T17:11:42.323Z,31
2023-03-16T17:16:50.672Z,31
2023-03-16T17:21:58.854Z,31
2023-03-16T17:27:01.805Z,32
2023-03-16T17:32:04.058Z,33
2023-03-16T17:37:10.767Z,33
2023-03-16T17:42:13.027Z,34
2023-03-16T17:47:19.780Z,34
2023-03-16T17:52:22.107Z,34
2023-03-16T17:57:24.182Z,35
2023-03-16T18:02:26.327Z,35
2023-03-16T18:07:28.462Z,35
2023-03-16T18:12:32.848Z,35
2023-03-16T18:17:35.751Z,35
2023-03-16T18:22:38.604Z,36
2023-03-16T18:27:45.511Z,36
2023-03-16T18:32:47.624Z,36
2023-03-16T18:37:49.708Z,36
2023-03-16T18:42:51.863Z,36
2023-03-16T18:47:57.166Z,36
2023-03-16T18:53:00.763Z,36
2023-03-16T18:58:03.648Z,35
2023-03-16T19:03:06.048Z,35
2023-03-16T19:08:09.599Z,34
2023-03-16T19:13:11.736Z,34
2023-03-16T19:18:14.873Z,33
2023-03-16T19:23:16.847Z,33
2023-03-16T19:28:20.571Z,32
2023-03-16T19:33:22.723Z,32
2023-03-16T19:38:29.494Z,32
2023-03-16T19:43:32.544Z,32
2023-03-16T19:48:34.826Z,32
2023-03-16T19:53:39.163Z,32
2023-03-16T19:58:41.384Z,32
2023-03-16T20:03:44.322Z,32
2023-03-16T20:08:46.432Z,33
2023-03-16T20:13:49.336Z,33
2023-03-16T20:18:51.474Z,33
2023-03-16T20:23:54.469Z,34
2023-03-16T20:28:57.336Z,34
2023-03-16T20:33:59.702Z,34
2023-03-16T20:39:02.470Z,34
2023-03-16T20:44:04.780Z,35
2023-03-16T20:49:06.877Z,35
2023-03-16T20:54:09.085Z,35
2023-03-16T20:59:12.137Z,35
2023-03-16T21:04:14.297Z,35
2023-03-16T21:09:17.170Z,35
2023-03-16T21:14:22.663Z,36
2023-03-16T21:19:24.958Z,36
2023-03-16T21:24:27.874Z,36
2023-03-16T21:29:34.587Z,36
2023-03-16T21:34:43.107Z,36
2023-03-16T21:39:45.330Z,35
2023-03-16T21:44:49.110Z,35
2023-03-16T21:49:55.852Z,34
2023-03-16T21:54:58.834Z,34
2023-03-16T22:00:01.007Z,33
2023-03-16T22:05:03.197Z,33
2023-03-16T22:10:07.258Z,33
2023-03-16T22:15:09.403Z,33
2023-03-16T22:20:17.827Z,33
2023-03-16T22:25:20.683Z,33
2023-03-16T22:30:23.583Z,33
2023-03-16T22:35:25.872Z,33
2023-03-16T22:40:27.969Z,33
2023-03-16T22:45:31.285Z,33
2023-03-16T22:50:33.909Z,33
2023-03-16T22:55:36.225Z,33
2023-03-16T23:00:43.018Z,33
2023-03-16T23:05:46.587Z,33
2023-03-16T23:10:49.610Z,33
2023-03-16T23:15:51.701Z,33
2023-03-16T23:20:53.914Z,33
2023-03-16T23:25:56.159Z,33
2023-03-16T23:30:58.290Z,33
2023-03-16T23:36:00.427Z,33
2023-03-16T23:41:03.248Z,33
2023-03-16T23:46:05.469Z,34
